createdAt,value
2018-08-13T00:00:39.823Z,3.83
2018-08-13T00:03:07.751Z,3.67
2018-08-13T00:05:35.554Z,3.60
2018-08-13T00:08:03.374Z,4.30
2018-08-13T00:10:31.077Z,4.17
2018-08-13T00:12:58.867Z,4.30
2018-08-13T00:15:26.665Z,4.20
2018-08-13T00:17:54.385Z,4.17
2018-08-13T00:20:22.178Z,3.83
2018-08-13T00:22:49.923Z,4.60
2018-08-13T00:25:17.685Z,4.73
2018-08-13T00:27:45.389Z,4.33
2018-08-13T00:30:13.057Z,4.80
2018-08-13T00:32:40.815Z,4.43
2018-08-13T00:35:08.528Z,4.40
2018-08-13T00:37:36.232Z,4.17
2018-08-13T00:40:06.594Z,3.90
2018-08-13T00:42:34.245Z,4.03
2018-08-13T00:45:01.962Z,4.40
2018-08-13T00:47:29.656Z,4.20
2018-08-13T00:49:57.349Z,4.60
2018-08-13T00:52:25.084Z,4.27
2018-08-13T00:54:52.796Z,4.60
2018-08-13T00:57:20.534Z,3.87
2018-08-13T00:59:48.193Z,4.60
2018-08-13T01:02:15.915Z,4.30
2018-08-13T01:04:43.613Z,4.30
2018-08-13T01:07:11.349Z,4.17
2018-08-13T01:09:39.105Z,4.30
2018-08-13T01:12:06.881Z,4.00
2018-08-13T01:14:34.564Z,4.50
2018-08-13T01:17:02.302Z,4.40
2018-08-13T01:19:30.138Z,4.60
2018-08-13T01:21:57.847Z,4.63
2018-08-13T01:24:25.649Z,4.77
2018-08-13T01:26:53.426Z,5.00
2018-08-13T01:29:21.154Z,5.00
2018-08-13T01:31:48.850Z,4.80
2018-08-13T01:34:16.566Z,4.80
2018-08-13T01:36:44.350Z,5.23
2018-08-13T01:39:12.055Z,5.07
2018-08-13T01:41:39.784Z,5.07
2018-08-13T01:44:07.505Z,5.23
2018-08-13T01:46:35.462Z,4.53
2018-08-13T01:49:03.267Z,4.77
2018-08-13T01:51:30.958Z,4.33
2018-08-13T01:53:58.739Z,4.17
2018-08-13T01:56:26.417Z,4.20
2018-08-13T01:58:54.171Z,4.10
2018-08-13T02:01:21.952Z,4.17
2018-08-13T02:03:49.771Z,4.30
2018-08-13T02:06:17.518Z,3.83
2018-08-13T02:08:45.260Z,4.40
2018-08-13T02:11:12.993Z,4.10
2018-08-13T02:13:40.698Z,4.23
2018-08-13T02:16:08.542Z,3.83
2018-08-13T02:18:36.258Z,3.83
2018-08-13T02:21:03.989Z,3.90
2018-08-13T02:23:31.678Z,4.77
2018-08-13T02:25:59.521Z,4.37
2018-08-13T02:28:27.189Z,4.23
2018-08-13T02:30:54.877Z,4.13
2018-08-13T02:33:22.570Z,4.37
2018-08-13T02:35:50.286Z,3.97
2018-08-13T02:38:18.013Z,4.00
2018-08-13T02:40:45.743Z,4.13
2018-08-13T02:43:13.434Z,4.13
2018-08-13T02:45:41.130Z,4.40
2018-08-13T02:48:08.837Z,4.20
2018-08-13T02:50:36.530Z,4.70
2018-08-13T02:53:04.275Z,4.03
2018-08-13T02:55:32.047Z,4.13
2018-08-13T02:57:59.857Z,4.03
2018-08-13T03:00:27.604Z,3.90
2018-08-13T03:02:55.301Z,3.93
2018-08-13T03:05:23.002Z,4.00
2018-08-13T03:07:50.659Z,4.10
2018-08-13T03:10:18.329Z,4.20
2018-08-13T03:12:46.008Z,3.97
2018-08-13T03:15:14.614Z,4.27
2018-08-13T03:17:42.395Z,4.30
2018-08-13T03:20:10.308Z,4.17
2018-08-13T03:22:38.056Z,4.37
2018-08-13T03:25:07.725Z,4.60
2018-08-13T03:27:35.531Z,4.10
2018-08-13T03:30:05.171Z,4.83
2018-08-13T03:32:32.869Z,4.50
2018-08-13T03:35:00.609Z,4.40
2018-08-13T03:37:28.393Z,4.47
2018-08-13T03:39:56.089Z,4.37
2018-08-13T03:42:23.787Z,4.00
2018-08-13T03:44:51.537Z,4.33
2018-08-13T03:47:19.265Z,4.20
2018-08-13T03:49:46.943Z,4.97
2018-08-13T03:52:14.657Z,4.23
2018-08-13T03:54:42.410Z,3.67
2018-08-13T03:57:10.225Z,3.83
2018-08-13T03:59:37.893Z,3.97
2018-08-13T04:02:05.674Z,4.07
2018-08-13T04:04:33.443Z,3.90
2018-08-13T04:07:01.291Z,3.90
2018-08-13T04:09:29.037Z,3.40
2018-08-13T04:11:56.722Z,4.10
2018-08-13T04:14:24.429Z,3.53
2018-08-13T04:17:01.805Z,4.03
2018-08-13T04:19:30.606Z,4.23
2018-08-13T04:21:58.695Z,4.53
2018-08-13T04:24:26.437Z,3.63
2018-08-13T04:26:54.160Z,4.10
2018-08-13T04:29:21.900Z,3.97
2018-08-13T04:31:49.648Z,3.87
2018-08-13T04:34:17.350Z,4.30
2018-08-13T04:36:45.065Z,4.23
2018-08-13T04:39:13.329Z,5.87
2018-08-13T04:41:42.113Z,4.70
2018-08-13T04:44:10.097Z,5.17
2018-08-13T04:46:37.803Z,6.10
2018-08-13T04:49:05.590Z,5.17
2018-08-13T04:51:33.585Z,5.03
2018-08-13T04:54:01.378Z,5.00
2018-08-13T04:56:29.314Z,4.70
2018-08-13T04:58:57.060Z,5.57
2018-08-13T05:01:24.802Z,4.60
2018-08-13T05:03:52.573Z,4.80
2018-08-13T05:06:20.613Z,4.87
2018-08-13T05:08:48.277Z,4.97
2018-08-13T05:11:15.940Z,5.17
2018-08-13T05:13:43.708Z,4.77
2018-08-13T05:16:11.490Z,5.57
2018-08-13T05:18:39.257Z,6.00
2018-08-13T05:21:07.326Z,6.20
2018-08-13T05:23:34.988Z,6.33
2018-08-13T05:26:02.827Z,5.87
2018-08-13T05:28:30.594Z,6.27
2018-08-13T05:30:58.338Z,6.53
2018-08-13T05:33:26.049Z,5.83
2018-08-13T05:35:53.717Z,4.93
2018-08-13T05:38:21.526Z,4.80
2018-08-13T05:40:49.181Z,4.83
2018-08-13T05:43:16.870Z,4.93
2018-08-13T05:45:44.566Z,5.37
2018-08-13T05:48:12.264Z,4.13
2018-08-13T05:50:40.062Z,4.23
2018-08-13T05:53:07.739Z,5.13
2018-08-13T05:55:35.449Z,4.30
2018-08-13T05:58:03.322Z,4.70
2018-08-13T06:00:30.995Z,4.50
2018-08-13T06:02:58.799Z,5.00
2018-08-13T06:05:26.542Z,4.70
2018-08-13T06:07:54.206Z,5.03
2018-08-13T06:10:21.934Z,4.73
2018-08-13T06:12:49.609Z,4.60
2018-08-13T06:15:17.351Z,4.67
2018-08-13T06:17:45.067Z,4.87
2018-08-13T06:20:13.059Z,4.47
2018-08-13T06:22:41.874Z,4.50
2018-08-13T06:25:10.393Z,3.93
2018-08-13T06:27:38.082Z,4.43
2018-08-13T06:30:09.882Z,4.00
2018-08-13T06:32:37.937Z,4.50
2018-08-13T06:35:05.726Z,5.57
2018-08-13T06:37:33.475Z,5.83
2018-08-13T06:40:01.206Z,4.60
2018-08-13T06:42:28.915Z,4.47
2018-08-13T06:44:56.687Z,5.00
2018-08-13T06:47:24.395Z,4.83
2018-08-13T06:49:52.106Z,4.97
2018-08-13T06:52:19.914Z,5.23
2018-08-13T06:54:47.626Z,4.80
2018-08-13T06:57:15.383Z,4.83
2018-08-13T06:59:43.345Z,4.70
2018-08-13T07:02:11.053Z,5.00
2018-08-13T07:04:38.738Z,4.80
2018-08-13T07:07:06.543Z,4.90
2018-08-13T07:09:34.245Z,5.27
2018-08-13T07:12:02.090Z,5.10
2018-08-13T07:14:29.850Z,5.07
2018-08-13T07:16:57.559Z,4.70
2018-08-13T07:19:25.292Z,5.40
2018-08-13T07:21:53.004Z,6.17
2018-08-13T07:24:20.741Z,6.47
2018-08-13T07:26:48.465Z,4.60
2018-08-13T07:29:16.280Z,4.27
2018-08-13T07:31:44.062Z,3.97
2018-08-13T07:34:11.733Z,4.10
2018-08-13T07:36:39.459Z,4.40
2018-08-13T07:39:09.142Z,4.10
2018-08-13T07:41:36.830Z,4.57
2018-08-13T07:44:05.168Z,4.23
2018-08-13T07:46:32.942Z,4.83
2018-08-13T07:49:00.681Z,5.53
2018-08-13T07:51:28.418Z,5.30
2018-08-13T07:53:56.173Z,4.30
2018-08-13T07:56:23.978Z,3.70
2018-08-13T07:58:52.178Z,4.27
2018-08-13T08:01:20.034Z,4.00
2018-08-13T08:03:47.730Z,3.73
2018-08-13T08:06:15.413Z,4.17
2018-08-13T08:08:43.090Z,4.30
2018-08-13T08:11:10.790Z,4.03
2018-08-13T08:13:38.559Z,4.27
2018-08-13T08:16:06.389Z,4.90
2018-08-13T08:18:34.225Z,4.90
2018-08-13T08:21:02.066Z,3.97
2018-08-13T08:23:29.952Z,4.50
2018-08-13T08:25:57.767Z,4.33
2018-08-13T08:28:25.516Z,4.10
2018-08-13T08:30:53.217Z,3.63
2018-08-13T08:33:21.095Z,3.77
2018-08-13T08:35:48.817Z,4.33
2018-08-13T08:38:16.521Z,4.50
2018-08-13T08:40:44.274Z,4.10
2018-08-13T08:43:12.115Z,4.57
2018-08-13T08:45:39.903Z,4.20
2018-08-13T08:48:08.486Z,4.13
2018-08-13T08:50:36.495Z,3.60
2018-08-13T08:53:04.545Z,3.90
2018-08-13T08:55:32.448Z,3.47
2018-08-13T08:58:00.193Z,4.27
2018-08-13T09:00:27.927Z,3.73
2018-08-13T09:02:55.637Z,3.90
2018-08-13T09:05:23.394Z,4.27
2018-08-13T09:07:51.181Z,3.50
2018-08-13T09:10:18.909Z,4.07
2018-08-13T09:12:46.675Z,3.70
2018-08-13T09:15:16.273Z,3.70
2018-08-13T09:17:56.102Z,3.63
2018-08-13T09:20:35.037Z,3.73
2018-08-13T09:23:13.862Z,3.87
2018-08-13T09:25:52.750Z,3.60
2018-08-13T09:28:31.679Z,4.70
2018-08-13T09:33:17.313Z,3.70
2018-08-13T09:35:45.323Z,4.13
2018-08-13T09:38:13.089Z,3.50
2018-08-13T09:40:40.795Z,3.60
2018-08-13T09:43:08.612Z,3.93
2018-08-13T09:45:36.513Z,3.80
2018-08-13T09:48:04.638Z,4.13
2018-08-13T09:50:32.361Z,3.20
2018-08-13T09:53:00.177Z,4.43
2018-08-13T09:55:27.913Z,3.87
2018-08-13T09:57:55.654Z,4.07
2018-08-13T10:00:28.812Z,3.70
2018-08-13T10:02:56.532Z,3.53
2018-08-13T10:05:24.303Z,3.40
2018-08-13T10:07:52.175Z,4.00
2018-08-13T10:10:20.004Z,3.63
2018-08-13T10:12:48.030Z,3.93
2018-08-13T10:15:15.818Z,4.10
2018-08-13T10:17:43.642Z,4.13
2018-08-13T10:20:15.013Z,4.23
2018-08-13T10:22:42.782Z,3.17
2018-08-13T10:25:11.149Z,3.93
2018-08-13T10:27:39.329Z,3.60
2018-08-13T10:30:08.621Z,3.70
2018-08-13T10:32:36.521Z,3.60
2018-08-13T10:35:04.938Z,3.87
2018-08-13T10:37:33.102Z,3.30
2018-08-13T10:40:00.784Z,3.40
2018-08-13T10:42:28.478Z,3.53
2018-08-13T10:44:56.221Z,2.93
2018-08-13T10:47:23.979Z,3.60
2018-08-13T10:49:51.760Z,3.47
2018-08-13T10:52:19.562Z,3.60
2018-08-13T10:54:47.307Z,3.67
2018-08-13T10:57:15.096Z,3.30
2018-08-13T10:59:42.806Z,3.60
2018-08-13T11:02:10.539Z,3.10
2018-08-13T11:04:38.246Z,3.60
2018-08-13T11:07:06.102Z,3.60
2018-08-13T11:09:33.854Z,3.33
2018-08-13T11:12:01.566Z,3.07
2018-08-13T11:14:29.299Z,3.03
2018-08-13T11:16:57.035Z,3.20
2018-08-13T11:19:24.777Z,3.27
2018-08-13T11:21:52.658Z,3.50
2018-08-13T11:24:20.863Z,3.60
2018-08-13T11:26:48.654Z,3.23
2018-08-13T11:29:16.353Z,3.60
2018-08-13T11:31:44.058Z,3.50
2018-08-13T11:34:12.665Z,3.43
2018-08-13T11:36:40.391Z,3.40
2018-08-13T11:39:09.996Z,3.40
2018-08-13T11:41:38.073Z,3.50
2018-08-13T11:44:05.962Z,3.00
2018-08-13T11:46:34.042Z,3.27
2018-08-13T11:49:03.914Z,3.10
2018-08-13T11:51:31.817Z,3.20
2018-08-13T11:53:59.554Z,3.40
2018-08-13T11:56:27.586Z,3.27
2018-08-13T11:58:55.326Z,3.30
2018-08-13T12:01:23.043Z,3.13
2018-08-13T12:03:51.067Z,3.30
2018-08-13T12:06:19.127Z,3.17
2018-08-13T12:08:47.259Z,3.43
2018-08-13T12:11:15.068Z,3.23
2018-08-13T12:13:42.809Z,3.20
2018-08-13T12:16:10.949Z,3.63
2018-08-13T12:18:38.706Z,2.97
2018-08-13T12:21:06.486Z,2.90
2018-08-13T12:23:34.369Z,3.10
2018-08-13T12:26:02.182Z,2.93
2018-08-13T12:28:29.940Z,3.13
2018-08-13T12:30:57.710Z,2.90
2018-08-13T12:33:25.433Z,2.70
2018-08-13T12:35:53.148Z,3.23
2018-08-13T12:38:20.869Z,2.80
2018-08-13T12:40:48.583Z,3.13
2018-08-13T12:43:16.381Z,2.60
2018-08-13T12:45:44.146Z,2.70
2018-08-13T12:48:11.911Z,2.50
2018-08-13T12:50:39.673Z,2.97
2018-08-13T12:53:07.531Z,2.87
2018-08-13T12:55:35.319Z,2.50
2018-08-13T12:58:03.128Z,2.40
2018-08-13T13:00:30.895Z,2.80
2018-08-13T13:02:58.600Z,2.57
2018-08-13T13:05:26.288Z,2.60
2018-08-13T13:07:54.050Z,2.70
2018-08-13T13:10:21.884Z,2.70
2018-08-13T13:12:49.566Z,2.60
2018-08-13T13:15:19.042Z,2.70
2018-08-13T13:17:47.001Z,2.70
2018-08-13T13:20:16.962Z,2.60
2018-08-13T13:22:44.909Z,2.73
2018-08-13T13:25:12.638Z,2.50
2018-08-13T13:27:40.379Z,3.13
2018-08-13T13:30:11.241Z,2.57
2018-08-13T13:32:38.950Z,2.27
2018-08-13T13:35:07.889Z,2.80
2018-08-13T13:37:36.083Z,2.70
2018-08-13T13:40:05.125Z,2.93
2018-08-13T13:42:32.854Z,2.73
2018-08-13T13:45:00.575Z,2.60
2018-08-13T13:47:28.376Z,2.70
2018-08-13T13:49:56.075Z,2.90
2018-08-13T13:52:23.829Z,2.57
2018-08-13T13:54:51.645Z,2.53
2018-08-13T13:57:19.408Z,2.87
2018-08-13T13:59:47.222Z,3.10
2018-08-13T14:02:14.949Z,2.63
2018-08-13T14:04:42.731Z,2.60
2018-08-13T14:07:10.429Z,2.70
2018-08-13T14:09:38.145Z,2.57
2018-08-13T14:12:06.072Z,3.00
2018-08-13T14:14:33.822Z,2.80
2018-08-13T14:17:01.647Z,2.77
2018-08-13T14:19:29.397Z,2.70
2018-08-13T14:21:57.368Z,3.07
2018-08-13T14:24:25.088Z,2.73
2018-08-13T14:26:52.988Z,2.70
2018-08-13T14:29:20.682Z,2.83
2018-08-13T14:31:48.418Z,2.83
2018-08-13T14:34:16.230Z,2.70
2018-08-13T14:36:43.981Z,2.80
2018-08-13T14:39:12.278Z,2.63
2018-08-13T14:41:40.106Z,3.00
2018-08-13T14:44:07.814Z,2.47
2018-08-13T14:46:35.826Z,2.73
2018-08-13T14:49:03.650Z,2.17
2018-08-13T14:51:31.762Z,3.13
2018-08-13T14:53:59.741Z,3.23
2018-08-13T14:56:27.482Z,3.23
2018-08-13T14:58:55.218Z,3.07
2018-08-13T15:01:23.103Z,2.83
2018-08-13T15:03:50.994Z,3.20
2018-08-13T15:06:18.803Z,2.90
2018-08-13T15:08:46.610Z,2.67
2018-08-13T15:11:14.302Z,2.60
2018-08-13T15:13:42.092Z,3.00
2018-08-13T15:16:09.842Z,2.70
2018-08-13T15:18:37.538Z,2.53
2018-08-13T15:21:05.355Z,3.23
2018-08-13T15:23:33.106Z,2.80
2018-08-13T15:26:00.803Z,3.70
2018-08-13T15:28:28.489Z,3.03
2018-08-13T15:30:56.313Z,2.60
2018-08-13T15:33:24.064Z,2.70
2018-08-13T15:35:51.798Z,3.00
2018-08-13T15:38:19.550Z,2.53
2018-08-13T15:40:47.385Z,2.80
2018-08-13T15:43:15.184Z,2.83
2018-08-13T15:45:43.054Z,2.60
2018-08-13T15:48:10.795Z,2.70
2018-08-13T15:50:38.582Z,3.10
2018-08-13T15:53:06.274Z,2.90
2018-08-13T15:55:34.103Z,3.23
2018-08-13T15:58:01.853Z,3.00
2018-08-13T16:00:29.598Z,3.20
2018-08-13T16:02:57.289Z,3.17
2018-08-13T16:05:25.231Z,3.00
2018-08-13T16:07:53.364Z,3.00
2018-08-13T16:10:21.165Z,3.50
2018-08-13T16:12:49.061Z,3.40
2018-08-13T16:15:16.850Z,2.93
2018-08-13T16:17:44.671Z,3.50
2018-08-13T16:20:14.642Z,3.07
2018-08-13T16:22:43.155Z,3.13
2018-08-13T16:25:10.944Z,2.80
2018-08-13T16:27:39.097Z,2.83
2018-08-13T16:30:12.822Z,3.30
2018-08-13T16:32:40.525Z,3.77
2018-08-13T16:35:08.382Z,3.37
2018-08-13T16:37:36.062Z,3.33
2018-08-13T16:40:04.093Z,3.27
2018-08-13T16:42:31.831Z,3.50
2018-08-13T16:44:59.683Z,4.43
2018-08-13T16:47:27.373Z,9.80
2018-08-13T16:49:55.059Z,4.10
2018-08-13T16:52:22.756Z,3.63
2018-08-13T16:54:52.512Z,3.60
2018-08-13T16:57:20.262Z,3.97
2018-08-13T16:59:48.039Z,3.20
2018-08-13T17:02:15.757Z,3.40
2018-08-13T17:04:43.660Z,3.43
2018-08-13T17:07:11.461Z,3.63
2018-08-13T17:09:39.229Z,3.70
2018-08-13T17:12:07.029Z,6.10
2018-08-13T17:14:34.862Z,4.87
2018-08-13T17:17:02.539Z,3.97
2018-08-13T17:19:30.350Z,3.50
2018-08-13T17:21:58.143Z,3.57
2018-08-13T17:24:25.970Z,4.30
2018-08-13T17:26:53.836Z,3.40
2018-08-13T17:29:22.049Z,4.40
2018-08-13T17:31:50.006Z,4.13
2018-08-13T17:34:17.813Z,5.33
2018-08-13T17:36:45.589Z,4.07
2018-08-13T17:39:14.767Z,4.40
2018-08-13T17:41:42.938Z,4.57
2018-08-13T17:44:10.891Z,5.50
2018-08-13T17:46:39.893Z,4.90
2018-08-13T17:49:08.390Z,4.70
2018-08-13T17:51:36.405Z,5.57
2018-08-13T17:54:04.244Z,4.60
2018-08-13T17:56:32.634Z,4.50
2018-08-13T17:59:00.468Z,4.33
2018-08-13T18:01:29.285Z,4.10
2018-08-13T18:04:00.930Z,3.80
2018-08-13T18:06:28.773Z,4.40
2018-08-13T18:08:56.717Z,5.10
2018-08-13T18:11:24.497Z,4.80
2018-08-13T18:13:52.271Z,5.17
2018-08-13T18:16:19.990Z,5.33
2018-08-13T18:18:47.835Z,5.37
2018-08-13T18:21:15.697Z,4.67
2018-08-13T18:23:43.477Z,4.58
2018-08-13T18:26:11.208Z,4.57
2018-08-13T18:28:38.930Z,5.90
2018-08-13T18:31:07.522Z,4.40
2018-08-13T18:33:35.290Z,4.13
2018-08-13T18:36:03.050Z,4.40
2018-08-13T18:38:30.860Z,4.80
2018-08-13T18:40:58.643Z,4.93
2018-08-13T18:43:26.397Z,4.40
2018-08-13T18:45:54.166Z,4.87
2018-08-13T18:48:21.886Z,13.97
2018-08-13T18:50:49.590Z,4.83
2018-08-13T18:53:17.430Z,4.60
2018-08-13T18:55:45.209Z,4.13
2018-08-13T18:58:13.013Z,4.07
2018-08-13T19:00:40.856Z,4.13
2018-08-13T19:03:08.637Z,5.03
2018-08-13T19:05:36.506Z,4.70
2018-08-13T19:08:04.370Z,4.73
2018-08-13T19:10:32.214Z,4.50
2018-08-13T19:12:59.958Z,4.90
2018-08-13T19:15:28.401Z,5.03
2018-08-13T19:17:56.213Z,4.70
2018-08-13T19:20:24.247Z,3.77
2018-08-13T19:22:52.273Z,4.03
2018-08-13T19:25:21.669Z,4.47
2018-08-13T19:27:49.476Z,3.97
2018-08-13T19:30:18.370Z,3.90
2018-08-13T19:32:47.113Z,3.70
2018-08-13T19:35:14.905Z,3.77
2018-08-13T19:37:42.824Z,4.17
2018-08-13T19:40:13.453Z,3.90
2018-08-13T19:42:41.196Z,4.20
2018-08-13T19:45:10.222Z,4.33
2018-08-13T19:47:38.024Z,4.43
2018-08-13T19:50:07.630Z,3.90
2018-08-13T19:52:35.345Z,4.33
2018-08-13T19:55:03.174Z,4.30
2018-08-13T19:57:30.966Z,4.30
2018-08-13T19:59:58.638Z,4.90
2018-08-13T20:02:26.441Z,4.27
2018-08-13T20:04:54.534Z,4.07
2018-08-13T20:07:22.297Z,4.30
2018-08-13T20:09:50.061Z,4.27
2018-08-13T20:12:17.865Z,5.10
2018-08-13T20:14:45.684Z,4.87
2018-08-13T20:17:13.414Z,4.97
2018-08-13T20:19:41.190Z,4.67
2018-08-13T20:22:14.017Z,4.40
2018-08-13T20:24:42.594Z,4.63
2018-08-13T20:27:10.417Z,5.00
2018-08-13T20:29:38.189Z,4.87
2018-08-13T20:32:06.877Z,4.67
2018-08-13T20:34:34.714Z,3.97
2018-08-13T20:37:02.549Z,4.30
2018-08-13T20:39:30.236Z,3.90
2018-08-13T20:41:57.997Z,3.93
2018-08-13T20:44:25.832Z,4.17
2018-08-13T20:46:53.601Z,4.43
2018-08-13T20:49:21.354Z,3.90
2018-08-13T20:51:49.194Z,4.23
2018-08-13T20:54:16.955Z,3.97
2018-08-13T20:56:44.666Z,4.00
2018-08-13T20:59:12.495Z,3.73
2018-08-13T21:01:40.229Z,3.83
2018-08-13T21:04:08.009Z,4.10
2018-08-13T21:06:35.778Z,4.27
2018-08-13T21:09:05.822Z,4.40
2018-08-13T21:11:33.597Z,4.43
2018-08-13T21:14:01.354Z,3.80
2018-08-13T21:16:29.122Z,4.97
2018-08-13T21:18:56.890Z,4.53
2018-08-13T21:21:24.633Z,3.87
2018-08-13T21:23:52.348Z,4.40
2018-08-13T21:26:20.123Z,5.37
2018-08-13T21:28:47.840Z,3.73
2018-08-13T21:31:15.597Z,3.57
2018-08-13T21:33:43.353Z,4.10
2018-08-13T21:36:11.166Z,4.07
2018-08-13T21:38:38.857Z,3.60
2018-08-13T21:41:06.581Z,4.17
2018-08-13T21:43:34.419Z,4.20
2018-08-13T21:46:02.134Z,4.10
2018-08-13T21:48:30.168Z,3.67
2018-08-13T21:50:57.869Z,4.33
2018-08-13T21:53:25.625Z,4.03
2018-08-13T21:55:53.428Z,3.63
2018-08-13T21:58:21.114Z,3.90
2018-08-13T22:00:54.298Z,3.73
2018-08-13T22:03:22.007Z,3.40
2018-08-13T22:05:49.681Z,3.90
2018-08-13T22:08:17.419Z,4.20
2018-08-13T22:10:45.222Z,4.00
2018-08-13T22:13:12.958Z,3.57
2018-08-13T22:15:40.667Z,4.13
2018-08-13T22:18:08.691Z,3.37
2018-08-13T22:20:37.110Z,4.07
2018-08-13T22:23:06.030Z,3.60
2018-08-13T22:25:38.644Z,3.80
2018-08-13T22:28:07.653Z,3.73
2018-08-13T22:30:35.761Z,3.83
2018-08-13T22:33:03.758Z,4.20
2018-08-13T22:35:31.585Z,3.90
2018-08-13T22:37:59.309Z,3.70
2018-08-13T22:40:27.005Z,4.00
2018-08-13T22:42:54.821Z,3.47
2018-08-13T22:45:23.555Z,3.80
2018-08-13T22:47:51.383Z,4.07
2018-08-13T22:50:19.206Z,3.83
2018-08-13T22:52:47.008Z,4.07
2018-08-13T22:55:16.358Z,3.47
2018-08-13T22:57:44.245Z,3.50
2018-08-13T23:00:13.933Z,7.25
2018-08-13T23:02:42.210Z,4.60
2018-08-13T23:05:11.855Z,3.67
2018-08-13T23:07:40.091Z,4.10
2018-08-13T23:10:08.668Z,3.93
2018-08-13T23:12:36.645Z,3.97
2018-08-13T23:15:07.822Z,3.90
2018-08-13T23:17:35.536Z,4.17
2018-08-13T23:20:04.037Z,4.00
2018-08-13T23:22:54.523Z,4.50
2018-08-13T23:25:22.380Z,3.97
2018-08-13T23:27:51.386Z,4.53
2018-08-13T23:30:19.221Z,4.10
2018-08-13T23:32:48.040Z,4.40
2018-08-13T23:35:16.731Z,3.90
2018-08-13T23:37:44.421Z,3.80
2018-08-13T23:40:12.185Z,3.50
2018-08-13T23:42:39.909Z,3.60
2018-08-13T23:45:10.695Z,3.70
2018-08-13T23:47:38.504Z,4.20
2018-08-13T23:50:07.642Z,3.90
2018-08-13T23:52:35.574Z,4.37
2018-08-13T23:55:03.892Z,4.17
2018-08-13T23:57:31.592Z,4.07
2018-08-13T23:59:59.332Z,3.97
